Time;durP1;ratioP1;P1;durP2;ratioP2;P2;SDS_P1;SDS_P2;PMS_P1;PMS_P2;Temp;Humidity;BMP_temperature;BMP_pressure;BME280_temperature;BME280_humidity;BME280_pressure;Samples;Min_cycle;Max_cycle;Signal;HPM_P1;HPM_P2
2022/04/12 00:00:22;;;;;;;1999.90;999.90;;;11.60;99.90;;;;;;5012632;28;20259;-70
2022/04/12 00:02:47;;;;;;;1999.90;999.90;;;11.70;99.90;;;;;;5012762;28;20180;-70
2022/04/12 00:05:13;;;;;;;1999.90;999.90;;;11.60;99.90;;;;;;5012290;28;20173;-70
2022/04/12 00:07:43;;;;;;;1999.90;999.90;;;11.60;99.90;;;;;;5012623;28;20168;-70
2022/04/12 00:10:11;;;;;;;1999.90;999.90;;;11.60;99.90;;;;;;5013594;28;20179;-70
2022/04/12 00:12:37;;;;;;;1999.90;999.90;;;11.60;99.90;;;;;;5013161;28;20509;-70
2022/04/12 00:15:04;;;;;;;1999.90;999.90;;;11.60;99.90;;;;;;5013078;28;20777;-70
2022/04/12 00:20:14;;;;;;;1999.90;999.90;;;11.50;99.90;;;;;;5012646;28;20453;-70
2022/04/12 00:22:40;;;;;;;1999.90;999.90;;;11.50;99.90;;;;;;5012549;28;20928;-69
2022/04/12 00:25:09;;;;;;;1999.90;999.90;;;11.40;99.90;;;;;;5012045;28;20741;-69
2022/04/12 00:27:35;;;;;;;1999.90;999.90;;;11.40;99.90;;;;;;5012429;28;20923;-70
2022/04/12 00:30:01;;;;;;;1999.90;999.90;;;11.40;99.90;;;;;;5012570;28;20806;-70
2022/04/12 00:32:27;;;;;;;1999.90;999.90;;;11.30;99.90;;;;;;5012207;28;20459;-69
2022/04/12 00:34:52;;;;;;;1999.90;999.90;;;11.30;99.90;;;;;;5012042;28;20165;-69
2022/04/12 00:37:18;;;;;;;1999.90;999.90;;;11.30;99.90;;;;;;5012600;28;20419;-69
2022/04/12 00:39:43;;;;;;;1999.90;999.90;;;11.30;99.90;;;;;;5012136;28;20207;-69
2022/04/12 00:42:09;;;;;;;1999.90;999.90;;;11.30;99.90;;;;;;5012132;28;20181;-69
2022/04/12 00:44:35;;;;;;;1999.90;999.90;;;11.30;99.90;;;;;;5014762;28;20252;-70
2022/04/12 00:47:00;;;;;;;1999.90;999.90;;;11.30;99.90;;;;;;5014988;28;20572;-70
2022/04/12 00:49:26;;;;;;;1999.90;999.90;;;11.30;99.90;;;;;;5016078;28;20188;-70
2022/04/12 00:51:53;;;;;;;1999.90;999.90;;;11.30;99.90;;;;;;5016053;28;20203;-70
2022/04/12 00:54:20;;;;;;;1999.90;999.90;;;11.30;99.90;;;;;;5015709;28;20165;-69
2022/04/12 00:56:48;;;;;;;1999.90;999.90;;;11.30;99.90;;;;;;5016415;28;20412;-69
2022/04/12 00:59:14;;;;;;;1999.90;999.90;;;11.20;99.90;;;;;;5015716;28;20530;-69
2022/04/12 01:01:40;;;;;;;1999.90;999.90;;;11.20;99.90;;;;;;5015944;28;20506;-69
2022/04/12 01:04:05;;;;;;;1999.90;999.90;;;11.20;99.90;;;;;;5015676;28;20415;-69
2022/04/12 01:06:31;;;;;;;1999.90;999.90;;;11.20;99.90;;;;;;5015853;28;20197;-70
2022/04/12 01:08:56;;;;;;;1999.90;999.90;;;11.20;99.90;;;;;;5015732;28;20215;-69
2022/04/12 01:11:22;;;;;;;1999.90;999.90;;;11.10;99.90;;;;;;5015636;28;20216;-69
2022/04/12 01:13:48;;;;;;;1999.90;999.90;;;11.10;99.90;;;;;;5015591;28;20172;-69
2022/04/12 01:16:13;;;;;;;1999.90;999.90;;;11.10;99.90;;;;;;5015449;28;20169;-69
2022/04/12 01:18:40;;;;;;;1999.90;999.90;;;11.10;99.90;;;;;;5015707;28;20203;-69
2022/04/12 01:21:06;;;;;;;1999.90;999.90;;;11.10;99.90;;;;;;5015565;28;20200;-69
2022/04/12 01:23:39;;;;;;;1999.90;999.90;;;11.10;99.90;;;;;;5015435;28;20415;-69
2022/04/12 01:26:06;;;;;;;1999.90;999.90;;;11.10;99.90;;;;;;5015378;28;20169;-70
2022/04/12 01:28:32;;;;;;;1999.90;999.90;;;11.00;99.90;;;;;;5015265;28;20439;-70
2022/04/12 01:30:57;;;;;;;1999.90;999.90;;;11.10;99.90;;;;;;5015359;28;20531;-70
2022/04/12 01:33:23;;;;;;;1999.90;999.90;;;11.10;99.90;;;;;;5015310;28;20248;-70
2022/04/12 01:35:48;;;;;;;1999.90;999.90;;;11.00;99.90;;;;;;5015038;28;20252;-69
2022/04/12 01:38:14;;;;;;;1999.90;999.90;;;11.00;99.90;;;;;;5015223;28;20197;-69
2022/04/12 01:40:40;;;;;;;1999.90;999.90;;;11.00;99.90;;;;;;5015236;28;20173;-70
2022/04/12 01:43:05;;;;;;;1999.90;999.90;;;10.90;99.90;;;;;;5015232;28;20185;-70
2022/04/12 01:45:31;;;;;;;1999.90;999.90;;;11.00;99.90;;;;;;5014862;28;20631;-70
2022/04/12 01:47:57;;;;;;;1999.90;999.90;;;11.00;99.90;;;;;;5015030;28;20193;-70
2022/04/12 01:50:23;;;;;;;1999.90;999.90;;;11.00;99.90;;;;;;5014985;28;20184;-70
2022/04/12 01:52:48;;;;;;;1999.90;999.90;;;11.00;99.90;;;;;;5015015;28;20243;-70
2022/04/12 01:55:14;;;;;;;1999.90;999.90;;;11.00;99.90;;;;;;5013260;28;20441;-70
2022/04/12 01:57:40;;;;;;;1999.90;999.90;;;11.00;99.90;;;;;;5014716;28;20220;-70
2022/04/12 02:00:07;;;;;;;1999.90;999.90;;;11.00;99.90;;;;;;5014933;28;20663;-70
2022/04/12 02:02:33;;;;;;;1999.90;999.90;;;11.00;99.90;;;;;;5014811;28;20430;-70
2022/04/12 02:04:59;;;;;;;1999.90;999.90;;;10.90;99.90;;;;;;5014458;28;20404;-70
2022/04/12 02:07:24;;;;;;;1999.90;999.90;;;10.90;99.90;;;;;;5014691;28;20184;-70
2022/04/12 02:09:50;;;;;;;1999.90;999.90;;;10.90;99.90;;;;;;5014741;28;20609;-70
2022/04/12 02:12:15;;;;;;;1999.90;999.90;;;10.90;99.90;;;;;;5015344;28;20215;-70
2022/04/12 02:14:41;;;;;;;1999.90;999.90;;;10.80;99.90;;;;;;5014625;28;20173;-69
2022/04/12 02:17:06;;;;;;;1999.90;999.90;;;10.80;99.90;;;;;;5014769;28;20183;-69
2022/04/12 02:19:32;;;;;;;1999.90;999.90;;;10.80;99.90;;;;;;5014518;28;20197;-69
2022/04/12 02:21:58;;;;;;;1999.90;999.90;;;10.80;99.90;;;;;;5014483;28;20685;-70
2022/04/12 02:24:23;;;;;;;1999.90;999.90;;;10.80;99.90;;;;;;5014154;28;20172;-70
2022/04/12 02:26:49;;;;;;;1999.90;999.90;;;10.90;99.90;;;;;;5014318;28;20176;-70
2022/04/12 02:29:14;;;;;;;1999.90;999.90;;;10.90;99.90;;;;;;5014221;28;20204;-70
2022/04/12 02:31:41;;;;;;;1999.90;999.90;;;10.90;99.90;;;;;;5014145;28;20193;-70
2022/04/12 02:34:07;;;;;;;1999.90;999.90;;;10.90;99.90;;;;;;5013871;28;20573;-70
2022/04/12 02:36:33;;;;;;;1999.90;999.90;;;11.00;99.90;;;;;;5014068;28;20416;-70
2022/04/12 02:38:58;;;;;;;1999.90;999.90;;;10.90;99.90;;;;;;5013990;28;20431;-70
2022/04/12 02:41:24;;;;;;;1999.90;999.90;;;10.90;99.90;;;;;;5014010;28;20197;-70
2022/04/12 02:43:49;;;;;;;1999.90;999.90;;;10.90;99.90;;;;;;5014126;28;20176;-70
2022/04/12 02:46:15;;;;;;;1999.90;999.90;;;11.00;99.90;;;;;;5013732;28;20764;-70
2022/04/12 02:48:41;;;;;;;1999.90;999.90;;;10.90;99.90;;;;;;5013772;28;20191;-70
2022/04/12 02:51:06;;;;;;;1999.90;999.90;;;10.90;99.90;;;;;;5013788;28;20269;-70
2022/04/12 02:53:32;;;;;;;1999.90;999.90;;;10.90;99.90;;;;;;5013765;28;20169;-70
2022/04/12 02:55:57;;;;;;;1999.90;999.90;;;10.80;99.90;;;;;;5013471;28;20165;-70
2022/04/12 02:58:23;;;;;;;1999.90;999.90;;;10.70;99.90;;;;;;5013610;28;20247;-70
2022/04/12 03:00:49;;;;;;;1999.90;999.90;;;10.70;99.90;;;;;;5013685;28;20191;-70
2022/04/12 03:03:14;;;;;;;1999.90;999.90;;;10.70;99.90;;;;;;5013658;28;20187;-70
2022/04/12 03:05:40;;;;;;;1999.90;999.90;;;10.70;99.90;;;;;;5013042;28;20287;-70
2022/04/12 03:08:05;;;;;;;1999.90;999.90;;;10.70;99.90;;;;;;5013267;28;20204;-70
2022/04/12 03:10:31;;;;;;;1999.90;999.90;;;10.70;99.90;;;;;;5013334;28;20173;-70
2022/04/12 03:12:57;;;;;;;1999.90;999.90;;;10.70;99.90;;;;;;5013461;28;20586;-70
2022/04/12 03:15:22;;;;;;;1999.90;999.90;;;10.70;99.90;;;;;;5013057;28;20168;-70
2022/04/12 03:17:48;;;;;;;1999.90;999.90;;;10.70;99.90;;;;;;5013301;28;20196;-70
2022/04/12 03:20:14;;;;;;;1999.90;999.90;;;10.70;99.90;;;;;;5013554;28;20180;-70
2022/04/12 03:22:41;;;;;;;1999.90;999.90;;;10.70;99.90;;;;;;5013259;28;20418;-70
2022/04/12 03:25:10;;;;;;;1999.90;999.90;;;10.70;99.90;;;;;;5013051;28;20255;-70
2022/04/12 03:27:36;;;;;;;1999.90;999.90;;;10.70;99.90;;;;;;5013121;28;20415;-70
2022/04/12 03:30:03;;;;;;;1999.90;999.90;;;10.80;99.90;;;;;;5013168;28;20510;-70
2022/04/12 03:32:28;;;;;;;1999.90;999.90;;;10.70;99.90;;;;;;5013396;28;20274;-70
2022/04/12 03:34:54;;;;;;;1999.90;999.90;;;10.70;99.90;;;;;;5013011;28;20499;-69
2022/04/12 03:37:20;;;;;;;1999.90;999.90;;;10.60;99.90;;;;;;5012991;28;20178;-72
2022/04/12 03:39:47;;;;;;;1999.90;999.90;;;10.50;99.90;;;;;;5012875;28;20567;-69
2022/04/12 03:42:14;;;;;;;1999.90;999.90;;;10.50;99.90;;;;;;5013041;28;20708;-69
2022/04/12 03:44:40;;;;;;;1999.90;999.90;;;10.50;99.90;;;;;;5012591;28;20415;-70
2022/04/12 03:47:07;;;;;;;1999.90;999.90;;;10.40;99.90;;;;;;5012812;28;20411;-70
2022/04/12 03:49:32;;;;;;;1999.90;999.90;;;10.40;99.90;;;;;;5012681;28;20472;-70
2022/04/12 03:51:59;;;;;;;1999.90;999.90;;;10.40;99.90;;;;;;5012741;28;20490;-70
2022/04/12 03:54:24;;;;;;;1999.90;999.90;;;10.30;99.90;;;;;;5012432;28;20418;-70
2022/04/12 03:56:50;;;;;;;1999.90;999.90;;;10.20;99.90;;;;;;5012809;28;20414;-69
2022/04/12 03:59:15;;;;;;;1999.90;999.90;;;10.20;99.90;;;;;;5012537;28;20223;-70
2022/04/12 04:01:41;;;;;;;1999.90;999.90;;;10.20;99.90;;;;;;5012597;28;20191;-70
2022/04/12 04:04:07;;;;;;;1999.90;999.90;;;10.10;99.90;;;;;;5012332;28;20172;-69
2022/04/12 04:06:32;;;;;;;1999.90;999.90;;;10.10;99.90;;;;;;5012706;28;20253;-70
2022/04/12 04:08:58;;;;;;;1999.90;999.90;;;10.10;99.90;;;;;;5012441;28;20193;-70
2022/04/12 04:11:23;;;;;;;1999.90;999.90;;;10.00;99.90;;;;;;5012524;28;20199;-70
2022/04/12 04:13:49;;;;;;;1999.90;999.90;;;10.10;99.90;;;;;;5012454;28;20176;-70
2022/04/12 04:16:14;;;;;;;1999.90;999.90;;;10.10;99.90;;;;;;5012128;28;20206;-70
2022/04/12 04:18:40;;;;;;;1999.90;999.90;;;10.10;99.90;;;;;;5011573;28;20643;-70
2022/04/12 04:21:06;;;;;;;1999.90;999.90;;;10.10;99.90;;;;;;5012366;28;20179;-71
2022/04/12 04:23:31;;;;;;;1999.90;999.90;;;10.00;99.90;;;;;;5012418;28;20199;-72
2022/04/12 04:25:57;;;;;;;1999.90;999.90;;;9.90;99.90;;;;;;5012012;28;20182;-72
2022/04/12 04:28:22;;;;;;;1999.90;999.90;;;9.90;99.90;;;;;;5012239;28;20218;-69
2022/04/12 04:30:51;;;;;;;1999.90;999.90;;;9.80;99.90;;;;;;5012153;28;20246;-71
2022/04/12 04:33:17;;;;;;;1999.90;999.90;;;9.80;99.90;;;;;;5012231;28;20259;-71
2022/04/12 04:35:47;;;;;;;1999.90;999.90;;;9.80;99.90;;;;;;5011931;28;20453;-72
2022/04/12 04:38:13;;;;;;;1999.90;999.90;;;9.80;99.90;;;;;;5012092;28;20425;-72
2022/04/12 04:40:39;;;;;;;1999.90;999.90;;;9.70;99.90;;;;;;5012272;28;20406;-72
2022/04/12 04:43:05;;;;;;;1999.90;999.90;;;9.70;99.90;;;;;;5012167;28;20791;-71
2022/04/12 04:45:31;;;;;;;1999.90;999.90;;;9.60;99.90;;;;;;5011774;28;20509;-71
2022/04/12 04:47:59;;;;;;;1999.90;999.90;;;9.60;99.90;;;;;;5012162;28;21054;-72
2022/04/12 04:50:27;;;;;;;1999.90;999.90;;;9.50;99.90;;;;;;5012085;28;20168;-72
2022/04/12 04:52:53;;;;;;;1999.90;999.90;;;9.50;99.90;;;;;;5012040;28;20929;-72
2022/04/12 04:55:19;;;;;;;1999.90;999.90;;;9.50;99.90;;;;;;5011736;28;20406;-72
2022/04/12 04:57:46;;;;;;;1999.90;999.90;;;9.40;99.90;;;;;;5011827;28;20539;-72
2022/04/12 05:00:17;;;;;;;1999.90;999.90;;;9.40;99.90;;;;;;5012007;28;20420;-72
2022/04/12 05:02:47;;;;;;;1999.90;999.90;;;9.40;99.90;;;;;;5012101;28;20404;-72
2022/04/12 05:05:14;;;;;;;1999.90;999.90;;;9.40;99.90;;;;;;5011645;28;20415;-71
2022/04/12 05:07:42;;;;;;;1999.90;999.90;;;9.50;99.90;;;;;;5011818;28;20405;-71
2022/04/12 05:10:12;;;;;;;1999.90;999.90;;;9.50;99.90;;;;;;5012261;28;20405;-72
2022/04/12 05:12:37;;;;;;;1999.90;999.90;;;9.50;99.90;;;;;;5011775;28;20895;-72
2022/04/12 05:15:03;;;;;;;1999.90;999.90;;;9.50;99.90;;;;;;5011570;28;20442;-71
2022/04/12 05:17:29;;;;;;;1999.90;999.90;;;9.60;99.90;;;;;;5011854;28;20640;-72
2022/04/12 05:19:58;;;;;;;1999.90;999.90;;;9.50;99.90;;;;;;5011698;28;20422;-72
2022/04/12 05:22:24;;;;;;;1999.90;999.90;;;9.70;99.90;;;;;;5011745;28;20178;-72
2022/04/12 05:24:50;;;;;;;1999.90;999.90;;;9.70;99.90;;;;;;5011399;28;20973;-72
2022/04/12 05:27:16;;;;;;;1999.90;999.90;;;9.80;99.90;;;;;;5011720;28;20414;-71
2022/04/12 05:29:42;;;;;;;1999.90;999.90;;;9.90;99.90;;;;;;5012860;28;20204;-72
2022/04/12 05:32:09;;;;;;;1999.90;999.90;;;9.90;99.90;;;;;;5015247;28;20481;-72
2022/04/12 05:34:36;;;;;;;1999.90;999.90;;;9.90;99.90;;;;;;5015153;28;20410;-72
2022/04/12 05:37:03;;;;;;;1999.90;999.90;;;10.00;99.90;;;;;;5015214;28;20405;-71
2022/04/12 05:39:28;;;;;;;1999.90;999.90;;;10.00;99.90;;;;;;5015071;28;20431;-70
2022/04/12 05:41:54;;;;;;;1999.90;999.90;;;10.10;99.90;;;;;;5015038;28;20788;-69
2022/04/12 05:44:20;;;;;;;1999.90;999.90;;;10.10;99.90;;;;;;5014938;28;20611;-72
2022/04/12 05:46:45;;;;;;;1999.90;999.90;;;10.20;99.90;;;;;;5015245;28;20176;-72
2022/04/12 05:49:11;;;;;;;1999.90;999.90;;;10.30;99.90;;;;;;5014953;28;20204;-72
2022/04/12 05:51:36;;;;;;;1999.90;999.90;;;10.40;99.90;;;;;;5014889;28;20200;-72
2022/04/12 05:54:02;;;;;;;1999.90;999.90;;;10.40;99.90;;;;;;5014638;28;20179;-72
2022/04/12 05:56:27;;;;;;;1999.90;999.90;;;10.50;99.90;;;;;;5013785;28;20723;-72
2022/04/12 05:58:53;;;;;;;1999.90;999.90;;;10.60;99.90;;;;;;5014659;28;20208;-71
2022/04/12 06:01:19;;;;;;;1999.90;999.90;;;10.60;99.90;;;;;;5014796;28;20247;-72
2022/04/12 06:03:44;;;;;;;1999.90;999.90;;;10.70;99.90;;;;;;5014769;28;20546;-72
2022/04/12 06:06:10;;;;;;;1999.90;999.90;;;10.80;99.90;;;;;;5014458;28;20168;-72
2022/04/12 06:08:35;;;;;;;1999.90;999.90;;;10.80;99.90;;;;;;5014611;28;20287;-72
2022/04/12 06:11:01;;;;;;;1999.90;999.90;;;10.80;99.90;;;;;;5014529;28;20209;-72
2022/04/12 06:13:26;;;;;;;1999.90;999.90;;;10.80;99.90;;;;;;5014639;28;20537;-72
2022/04/12 06:15:52;;;;;;;1999.90;999.90;;;10.80;99.90;;;;;;5014288;28;20215;-72
2022/04/12 06:18:18;;;;;;;1999.90;999.90;;;10.90;99.90;;;;;;5014407;28;20685;-69
2022/04/12 06:20:43;;;;;;;1999.90;999.90;;;10.90;99.90;;;;;;5014295;28;20295;-70
2022/04/12 06:23:09;;;;;;;1999.90;999.90;;;11.00;99.90;;;;;;5014386;28;20604;-69
2022/04/12 06:25:34;;;;;;;1999.90;999.90;;;11.10;99.90;;;;;;5014101;28;20264;-70
2022/04/12 06:28:00;;;;;;;1999.90;999.90;;;11.10;99.90;;;;;;5014236;28;20220;-72
2022/04/12 06:30:30;;;;;;;1999.90;999.90;;;11.20;99.90;;;;;;5014313;28;20164;-72
2022/04/12 06:32:56;;;;;;;1999.90;999.90;;;11.20;99.90;;;;;;5014221;28;20172;-72
2022/04/12 06:35:22;;;;;;;1999.90;999.90;;;11.30;99.90;;;;;;5013883;28;20465;-72
2022/04/12 06:37:52;;;;;;;1999.90;999.90;;;11.30;99.90;;;;;;5013986;28;20404;-71
2022/04/12 06:40:19;;;;;;;1999.90;999.90;;;11.30;99.90;;;;;;5014207;28;20760;-71
2022/04/12 06:42:46;;;;;;;1999.90;999.90;;;11.30;99.90;;;;;;5013447;28;20411;-71
2022/04/12 06:45:12;;;;;;;1999.90;999.90;;;11.30;99.90;;;;;;5013762;28;20404;-72
2022/04/12 06:47:39;;;;;;;1999.90;999.90;;;11.30;99.90;;;;;;5013962;28;20412;-71
2022/04/12 06:50:06;;;;;;;1999.90;999.90;;;11.30;99.90;;;;;;5013896;28;20431;-72
2022/04/12 06:52:32;;;;;;;1999.90;999.90;;;11.40;99.90;;;;;;5013775;28;20456;-71
2022/04/12 06:54:58;;;;;;;1999.90;999.90;;;11.40;99.90;;;;;;5013615;28;20594;-71
2022/04/12 06:57:24;;;;;;;1999.90;999.90;;;11.40;99.90;;;;;;5013753;28;20411;-72
2022/04/12 06:59:51;;;;;;;1999.90;999.90;;;11.50;99.90;;;;;;5013563;28;20841;-72
2022/04/12 07:02:17;;;;;;;1999.90;999.90;;;11.50;99.90;;;;;;5013725;28;20181;-72
2022/04/12 07:04:42;;;;;;;1999.90;999.90;;;11.60;99.90;;;;;;5013274;28;20580;-72
2022/04/12 07:07:08;;;;;;;1999.90;999.90;;;11.70;99.90;;;;;;5013463;28;20181;-72
2022/04/12 07:09:34;;;;;;;1999.90;999.90;;;11.90;99.90;;;;;;5013468;28;20197;-72
2022/04/12 07:12:01;;;;;;;1999.90;999.90;;;12.00;99.90;;;;;;5013554;28;20464;-72
2022/04/12 07:14:29;;;;;;;1999.90;999.90;;;12.20;99.90;;;;;;5013331;28;20607;-72
2022/04/12 07:16:57;;;;;;;1999.90;999.90;;;12.30;99.90;;;;;;5013345;28;20419;-72
2022/04/12 07:19:22;;;;;;;1999.90;999.90;;;12.40;99.90;;;;;;5013229;28;20429;-72
2022/04/12 07:21:48;;;;;;;1999.90;999.90;;;12.50;99.90;;;;;;5013291;28;20444;-72
2022/04/12 07:24:14;;;;;;;1999.90;999.90;;;12.50;99.90;;;;;;5013189;28;20408;-72
2022/04/12 07:26:41;;;;;;;1999.90;999.90;;;12.60;99.90;;;;;;5013274;28;20174;-72
2022/04/12 07:29:07;;;;;;;1999.90;999.90;;;12.60;99.90;;;;;;5013131;28;20515;-72
2022/04/12 07:31:33;;;;;;;1999.90;999.90;;;12.80;99.90;;;;;;5013191;28;20971;-72
2022/04/12 07:33:59;;;;;;;1999.90;999.90;;;13.00;99.90;;;;;;5012798;28;20408;-72
2022/04/12 07:36:25;;;;;;;1999.90;999.90;;;13.20;99.90;;;;;;5012918;28;20411;-72
2022/04/12 07:38:50;;;;;;;1999.90;999.90;;;13.40;99.90;;;;;;5012987;28;20432;-72
2022/04/12 07:41:17;;;;;;;1999.90;999.90;;;13.50;99.90;;;;;;5013144;28;20205;-72
2022/04/12 07:43:45;;;;;;;1999.90;999.90;;;13.70;99.90;;;;;;5012938;28;20180;-72
2022/04/12 07:46:12;;;;;;;1999.90;999.90;;;13.80;99.90;;;;;;5012756;28;20420;-72
2022/04/12 07:48:37;;;;;;;1999.90;999.90;;;13.90;99.90;;;;;;5012787;28;20463;-72
2022/04/12 07:51:03;;;;;;;1999.90;999.90;;;14.00;99.90;;;;;;5012705;28;20484;-71
2022/04/12 07:53:28;;;;;;;1999.90;999.90;;;14.10;99.90;;;;;;5012690;28;20177;-71
2022/04/12 07:55:54;;;;;;;1999.90;999.90;;;14.10;99.90;;;;;;5012539;28;20559;-72
2022/04/12 07:58:20;;;;;;;1999.90;999.90;;;14.30;99.90;;;;;;5012525;28;20205;-71
2022/04/12 08:00:45;;;;;;;1999.90;999.90;;;14.40;99.90;;;;;;5012677;28;20218;-71
2022/04/12 08:03:11;;;;;;;1999.90;999.90;;;14.50;99.90;;;;;;5012591;28;20515;-72
2022/04/12 08:05:36;;;;;;;1999.90;999.90;;;14.80;99.90;;;;;;5012357;28;20172;-72
2022/04/12 08:08:03;;;;;;;1999.90;999.90;;;15.00;99.90;;;;;;5012653;28;20571;-71
2022/04/12 08:10:28;;;;;;;1999.90;999.90;;;15.20;99.90;;;;;;5012593;28;20174;-71
2022/04/12 08:12:55;;;;;;;1999.90;999.90;;;15.30;99.90;;;;;;5012417;28;20980;-71
2022/04/12 08:15:22;;;;;;;1999.90;999.90;;;15.60;99.90;;;;;;5010488;28;20181;-69
2022/04/12 08:17:47;;;;;;;1999.90;999.90;;;15.80;99.90;;;;;;5012701;28;20425;-68
2022/04/12 08:20:13;;;;;;;1999.90;999.90;;;15.90;99.90;;;;;;5012249;28;20809;-68
2022/04/12 08:22:40;;;;;;;1999.90;999.90;;;16.10;99.90;;;;;;5012442;28;20181;-68
2022/04/12 08:25:07;;;;;;;1999.90;999.90;;;16.30;99.90;;;;;;5012123;28;20281;-69
2022/04/12 08:27:32;;;;;;;1999.90;999.90;;;16.50;99.90;;;;;;5008222;28;20410;-67
2022/04/12 08:29:58;;;;;;;1999.90;999.90;;;16.50;99.90;;;;;;5011428;28;20974;-69
2022/04/12 08:32:24;;;;;;;1999.90;999.90;;;16.50;99.90;;;;;;5012010;28;20542;-69
2022/04/12 08:34:49;;;;;;;1999.90;999.90;;;16.60;99.90;;;;;;5009305;28;20182;-69
2022/04/12 08:37:15;;;;;;;1999.90;999.90;;;16.50;99.90;;;;;;5009648;28;20173;-69
2022/04/12 08:39:41;;;;;;;1999.90;999.90;;;16.60;99.90;;;;;;5008038;28;20215;-69
2022/04/12 08:42:07;;;;;;;1999.90;999.90;;;16.70;99.90;;;;;;5008145;28;20463;-69
2022/04/12 08:44:34;;;;;;;1999.90;999.90;;;16.80;99.90;;;;;;5007817;28;20210;-69
2022/04/12 08:47:04;;;;;;;1999.90;999.90;;;16.90;99.90;;;;;;5008432;28;20208;-69
2022/04/12 08:49:30;;;;;;;1999.90;999.90;;;17.10;99.90;;;;;;5008524;28;20430;-69
2022/04/12 08:51:55;;;;;;;1999.90;999.90;;;17.20;99.90;;;;;;5008483;28;20474;-69
2022/04/12 08:54:22;;;;;;;1999.90;999.90;;;17.30;99.90;;;;;;5008402;28;20430;-70
2022/04/12 08:56:51;;;;;;;1999.90;999.90;;;17.40;99.90;;;;;;5006225;28;20833;-69
2022/04/12 08:59:18;;;;;;;1999.90;999.90;;;17.50;99.90;;;;;;5007343;28;20456;-68
2022/04/12 09:01:46;;;;;;;1999.90;999.90;;;17.50;99.90;;;;;;5007900;28;20426;-68
2022/04/12 09:04:12;;;;;;;1999.90;999.90;;;17.60;99.90;;;;;;5007121;28;20430;-68
2022/04/12 09:06:56;;;;;;;1999.90;999.90;;;17.80;99.90;;;;;;5011353;28;20418;-69
2022/04/12 09:09:26;;;;;;;1999.90;999.90;;;18.00;99.90;;;;;;5011518;28;20440;-69
2022/04/12 09:12:04;;;;;;;1999.90;999.90;;;18.10;99.90;;;;;;5010039;28;20455;-69
2022/04/12 09:14:37;;;;;;;1999.90;999.90;;;18.00;99.90;;;;;;5010953;28;20435;-69
2022/04/12 09:17:08;;;;;;;1999.90;999.90;;;18.10;99.90;;;;;;5012431;28;21258;-69
2022/04/12 09:19:48;;;;;;;1999.90;999.90;;;18.20;99.90;;;;;;5012902;28;20594;-69
2022/04/12 09:22:25;;;;;;;1999.90;999.90;;;18.30;99.90;;;;;;5014034;28;20451;-69
2022/04/12 09:24:56;;;;;;;1999.90;999.90;;;18.40;99.90;;;;;;5013005;28;20463;-69
2022/04/12 09:27:24;;;;;;;1999.90;999.90;;;18.50;99.90;;;;;;5012397;28;20495;-69
2022/04/12 09:29:53;;;;;;;1999.90;999.90;;;18.50;99.90;;;;;;5013790;28;20509;-69
2022/04/12 09:32:23;;;;;;;1999.90;999.90;;;18.40;99.90;;;;;;5013011;28;20472;-69
2022/04/12 09:34:50;;;;;;;1999.90;999.90;;;18.50;99.90;;;;;;5012780;28;20423;-69
2022/04/12 09:37:27;;;;;;;1999.90;999.90;;;18.50;99.90;;;;;;5013202;28;20412;-69
2022/04/12 09:40:05;;;;;;;1999.90;999.90;;;18.60;99.90;;;;;;5012437;28;20443;-69
2022/04/12 09:43:01;;;;;;;1999.90;999.90;;;18.70;99.90;;;;;;5012531;28;20435;-69
2022/04/12 09:45:30;;;;;;;1999.90;999.90;;;18.80;99.90;;;;;;5004011;28;20448;-69
2022/04/12 09:47:58;;;;;;;1999.90;999.90;;;18.90;99.90;;;;;;5012233;28;20543;-69
2022/04/12 09:50:26;;;;;;;1999.90;999.90;;;19.10;99.90;;;;;;5013266;28;21030;-69
2022/04/12 09:53:03;;;;;;;1999.90;999.90;;;19.10;99.90;;;;;;5012157;28;20543;-69
2022/04/12 09:55:31;;;;;;;1999.90;999.90;;;19.20;99.90;;;;;;5011332;28;20425;-69
2022/04/12 09:57:57;;;;;;;1999.90;999.90;;;19.20;99.90;;;;;;5012592;28;20501;-69
2022/04/12 10:00:23;;;;;;;1999.90;999.90;;;19.30;99.90;;;;;;5012543;28;20430;-69
2022/04/12 10:02:49;;;;;;;1999.90;999.90;;;19.40;99.90;;;;;;4995215;28;20461;-69
2022/04/12 10:05:15;;;;;;;1999.90;999.90;;;19.40;99.90;;;;;;5011948;28;20465;-69
2022/04/12 10:07:40;;;;;;;1999.90;999.90;;;19.50;99.90;;;;;;5012457;28;20182;-69
2022/04/12 10:10:06;;;;;;;1999.90;999.90;;;19.70;99.90;;;;;;5011972;28;20189;-69
2022/04/12 10:12:35;;;;;;;1999.90;999.90;;;19.80;99.90;;;;;;5012909;28;20207;-69
2022/04/12 10:15:01;;;;;;;1999.90;999.90;;;19.80;98.60;;;;;;5011216;28;20476;-69
2022/04/12 10:17:27;;;;;;;1999.90;999.90;;;19.90;99.90;;;;;;5011385;28;20470;-69
2022/04/12 10:19:54;;;;;;;1999.90;999.90;;;20.00;98.20;;;;;;5011683;28;20440;-69
2022/04/12 10:22:20;;;;;;;1999.90;999.90;;;20.20;99.90;;;;;;5012364;28;20182;-69
2022/04/12 10:24:46;;;;;;;1999.90;999.90;;;20.40;98.60;;;;;;5011436;28;20423;-69
2022/04/12 10:27:12;;;;;;;1999.90;999.90;;;20.60;98.80;;;;;;5010855;28;20421;-69
2022/04/12 10:29:37;;;;;;;1999.90;999.90;;;20.80;99.20;;;;;;5011215;28;20195;-69
2022/04/12 10:32:05;;;;;;;1999.90;999.90;;;20.90;96.60;;;;;;5012414;28;20201;-69
2022/04/12 10:34:31;;;;;;;1999.90;999.90;;;21.10;96.70;;;;;;5010885;28;20275;-69
2022/04/12 10:37:07;;;;;;;1999.90;999.90;;;21.20;96.20;;;;;;5011976;28;20391;-70
2022/04/12 10:39:49;;;;;;;1999.90;999.90;;;21.40;94.70;;;;;;5011915;28;20815;-69
2022/04/12 10:42:25;;;;;;;1999.90;999.90;;;21.50;94.50;;;;;;5012258;28;20775;-69
2022/04/12 10:44:53;;;;;;;1999.90;999.90;;;21.50;92.40;;;;;;5011115;28;20442;-69
2022/04/12 10:47:43;;;;;;;1999.90;999.90;;;21.70;93.40;;;;;;5011230;28;20424;-69
2022/04/12 10:50:14;;;;;;;1999.90;999.90;;;21.90;92.00;;;;;;5011373;28;20425;-69
2022/04/12 10:52:43;;;;;;;1999.90;999.90;;;22.10;95.50;;;;;;5011127;28;20832;-70
2022/04/12 10:55:23;;;;;;;1999.90;999.90;;;22.30;92.20;;;;;;5010694;28;20896;-70
2022/04/12 10:57:50;;;;;;;1999.90;999.90;;;22.60;90.90;;;;;;5011669;28;20420;-70
2022/04/12 11:00:17;;;;;;;1999.90;999.90;;;22.70;85.30;;;;;;5011080;28;20421;-70
2022/04/12 11:02:57;;;;;;;1999.90;999.90;;;22.80;82.80;;;;;;5011791;28;20941;-70
2022/04/12 11:05:44;;;;;;;1999.90;999.90;;;23.00;81.00;;;;;;5010434;28;20400;-70
2022/04/12 11:08:15;;;;;;;1999.90;999.90;;;23.30;84.10;;;;;;5011516;28;20404;-71
2022/04/12 11:11:03;;;;;;;1999.90;999.90;;;23.50;78.10;;;;;;5011004;28;20421;-70
2022/04/12 11:13:30;;;;;;;1999.90;999.90;;;23.70;76.20;;;;;;5004930;28;20505;-70
2022/04/12 11:15:59;;;;;;;1999.90;999.90;;;23.60;75.30;;;;;;5010844;28;20802;-70
2022/04/12 11:18:58;;;;;;;1999.90;999.90;;;23.60;62.90;;;;;;5011988;28;20514;-70
2022/04/12 11:21:26;;;;;;;1999.90;999.90;;;23.60;54.20;;;;;;5011225;28;20505;-70
2022/04/12 11:23:54;;;;;;;1999.90;999.90;;;23.70;66.70;;;;;;5011465;28;20486;-70
2022/04/12 11:26:45;;;;;;;1999.90;999.90;;;23.80;67.10;;;;;;5010851;28;20497;-70
2022/04/12 11:29:12;;;;;;;1999.90;999.90;;;23.80;57.40;;;;;;5012515;28;20511;-70
2022/04/12 11:31:50;;;;;;;1999.90;999.90;;;23.70;57.20;;;;;;5011233;28;20422;-70
2022/04/12 11:34:20;;;;;;;1999.90;999.90;;;23.70;57.00;;;;;;5012447;28;20426;-70
2022/04/12 11:37:07;;;;;;;1999.90;999.90;;;23.60;54.40;;;;;;5012330;28;20809;-70
2022/04/12 11:39:38;;;;;;;1999.90;999.90;;;23.50;54.80;;;;;;5012046;28;20428;-70
2022/04/12 11:42:12;;;;;;;1999.90;999.90;;;23.70;54.20;;;;;;5011544;28;20441;-70
2022/04/12 11:44:39;;;;;;;1999.90;999.90;;;24.00;59.30;;;;;;5011438;28;20843;-70
2022/04/12 11:47:10;;;;;;;1999.90;999.90;;;24.30;59.70;;;;;;5010927;28;20466;-70
2022/04/12 11:49:38;;;;;;;1999.90;999.90;;;24.80;57.80;;;;;;5011100;28;20434;-70
2022/04/12 11:52:06;;;;;;;1999.90;999.90;;;25.30;54.40;;;;;;5011061;28;20462;-70
2022/04/12 11:54:34;;;;;;;1999.90;999.90;;;25.80;54.20;;;;;;5010364;28;20459;-70
2022/04/12 11:57:01;;;;;;;1999.90;999.90;;;26.40;51.30;;;;;;5011506;28;20757;-70
2022/04/12 11:59:28;;;;;;;1999.90;999.90;;;27.00;46.10;;;;;;5011588;28;20446;-70
2022/04/12 12:02:05;;;;;;;1999.90;999.90;;;27.30;45.20;;;;;;5010885;28;20438;-70
2022/04/12 12:04:33;;;;;;;1999.90;999.90;;;27.50;43.90;;;;;;5011076;28;20447;-70